Time;durP1;ratioP1;P1;durP2;ratioP2;P2;SDS_P1;SDS_P2;PMS_P1;PMS_P2;Temp;Humidity;BMP_temperature;BMP_pressure;BME280_temperature;BME280_humidity;BME280_pressure;Samples;Min_cycle;Max_cycle;Signal;HPM_P1;HPM_P2
2021/01/30 00:00:27;;;;;;;24.15;13.27;;;;;;;-1.10;97.67;98829.72;4936363;28;20056;-55
2021/01/30 00:02:55;;;;;;;27.10;14.63;;;;;;;-1.27;97.94;98830.66;4934857;28;20055;-53
2021/01/30 00:05:21;;;;;;;24.20;14.13;;;;;;;-0.97;98.28;98829.44;4933280;28;20103;-55
2021/01/30 00:07:48;;;;;;;23.50;13.65;;;;;;;-0.85;96.72;98824.06;4934012;28;20150;-56
2021/01/30 00:10:15;;;;;;;22.70;13.82;;;;;;;-1.11;98.50;98816.31;4933975;28;20059;-55
2021/01/30 00:12:42;;;;;;;22.55;14.23;;;;;;;-1.37;98.98;98820.25;4933259;28;20064;-56
2021/01/30 00:15:12;;;;;;;24.55;14.60;;;;;;;-1.40;100.00;98809.22;4934505;28;20097;-55
2021/01/30 00:17:38;;;;;;;26.20;14.38;;;;;;;-1.63;100.00;98815.75;4932626;28;20519;-57
2021/01/30 00:20:07;;;;;;;22.35;13.80;;;;;;;-1.59;100.00;98817.59;4934935;28;20074;-58
2021/01/30 00:22:34;;;;;;;25.85;14.70;;;;;;;-1.69;100.00;98816.34;4932569;28;20044;-56
2021/01/30 00:25:01;;;;;;;29.60;15.43;;;;;;;-1.75;100.00;98822.75;4935353;28;20078;-57
2021/01/30 00:27:28;;;;;;;26.80;15.57;;;;;;;-1.37;100.00;98820.25;4932200;28;20086;-57
2021/01/30 00:29:55;;;;;;;23.55;13.98;;;;;;;-1.36;100.00;98816.94;4934549;28;20130;-56
2021/01/30 00:32:22;;;;;;;21.85;13.75;;;;;;;-1.39;99.73;98824.31;4932143;28;20799;-56
2021/01/30 00:34:49;;;;;;;26.40;15.23;;;;;;;-1.52;100.00;98816.22;4933650;28;20071;-57
2021/01/30 00:37:22;;;;;;;28.00;14.38;;;;;;;-1.52;100.00;98816.22;4932659;28;20051;-54
2021/01/30 00:39:50;;;;;;;27.50;14.55;;;;;;;-1.72;100.00;98818.72;4933484;28;20070;-56
2021/01/30 00:42:19;;;;;;;23.35;14.60;;;;;;;-1.45;100.00;98820.72;4932274;28;20047;-57
2021/01/30 00:44:45;;;;;;;23.27;13.45;;;;;;;-1.41;100.00;98825.91;4932712;28;20051;-56
2021/01/30 00:47:13;;;;;;;21.15;12.55;;;;;;;-1.60;100.00;98829.28;4932953;28;20058;-56
2021/01/30 00:49:41;;;;;;;23.20;12.50;;;;;;;-1.42;99.78;98839.28;4932024;28;20388;-55
2021/01/30 00:52:09;;;;;;;21.48;12.43;;;;;;;-1.41;98.75;98833.44;4933011;28;20051;-57
2021/01/30 00:54:36;;;;;;;21.88;12.35;;;;;;;-1.21;98.19;98839.31;4930957;28;20134;-58
2021/01/30 00:57:03;;;;;;;23.10;11.60;;;;;;;-1.26;98.25;98830.72;4934203;28;20074;-57
2021/01/30 00:59:29;;;;;;;21.02;11.43;;;;;;;-1.07;97.66;98830.69;4931676;28;20074;-56
2021/01/30 01:01:55;;;;;;;19.38;12.25;;;;;;;-1.30;97.64;98832.25;4934069;28;20215;-55
2021/01/30 01:04:22;;;;;;;21.40;13.32;;;;;;;-1.17;97.78;98840.31;4931560;28;20341;-56
2021/01/30 01:06:49;;;;;;;21.85;12.63;;;;;;;-1.39;97.95;98844.41;4932858;28;20103;-56
2021/01/30 01:09:17;;;;;;;23.88;13.20;;;;;;;-1.38;99.48;98856.19;4932822;28;20184;-56
2021/01/30 01:11:46;;;;;;;21.55;13.05;;;;;;;-1.31;98.92;98850.63;4932542;28;20542;-55
2021/01/30 01:14:13;;;;;;;23.23;13.85;;;;;;;-1.72;99.31;98841.28;4933020;28;20138;-57
2021/01/30 01:16:40;;;;;;;26.08;14.25;;;;;;;-1.64;100.00;98842.50;4931478;28;20496;-53
2021/01/30 01:19:07;;;;;;;26.85;14.13;;;;;;;-1.24;99.45;98846.72;4932853;28;20106;-57
2021/01/30 01:21:33;;;;;;;29.15;15.20;;;;;;;-1.43;99.93;98846.72;4931368;28;20098;-57
2021/01/30 01:24:00;;;;;;;22.20;12.52;;;;;;;-1.54;99.76;98842.09;4935506;28;20055;-56
2021/01/30 01:26:26;;;;;;;23.58;13.27;;;;;;;-1.03;98.60;98846.75;4930824;28;20492;-58
2021/01/30 01:28:53;;;;;;;21.95;12.93;;;;;;;-1.00;97.24;98846.03;4933956;28;20059;-57
2021/01/30 01:31:21;;;;;;;22.45;13.77;;;;;;;-1.27;97.99;98848.25;4931720;28;20044;-57
2021/01/30 01:33:47;;;;;;;20.65;12.30;;;;;;;-1.29;97.78;98844.03;4932727;28;20044;-56
2021/01/30 01:36:16;;;;;;;22.00;12.13;;;;;;;-1.11;96.98;98845.56;4932112;28;20063;-57
2021/01/30 01:38:42;;;;;;;22.38;11.95;;;;;;;-1.59;98.78;98845.22;4931825;28;20459;-57
2021/01/30 01:41:10;;;;;;;24.75;13.20;;;;;;;-1.73;99.00;98839.59;4932598;28;20106;-55
2021/01/30 01:43:37;;;;;;;20.95;11.02;;;;;;;-1.25;99.27;98834.94;4931214;28;20186;-55
2021/01/30 01:46:12;;;;;;;22.13;11.68;;;;;;;-1.70;99.07;98837.22;4933638;28;20047;-55
2021/01/30 01:48:49;;;;;;;21.80;11.90;;;;;;;-1.54;98.32;98837.06;4931158;28;20044;-57
2021/01/30 01:51:27;;;;;;;16.92;10.68;;;;;;;-1.33;97.51;98839.66;4932450;28;20130;-53
2021/01/30 01:53:58;;;;;;;20.67;11.88;;;;;;;-1.54;98.54;98841.25;4933078;28;20077;-56
2021/01/30 01:56:28;;;;;;;20.30;11.55;;;;;;;-1.39;98.12;98849.41;4934288;28;20600;-56
2021/01/30 01:59:02;;;;;;;18.17;10.50;;;;;;;-1.26;97.63;98848.31;4933245;28;20063;-57
2021/01/30 02:01:31;;;;;;;20.40;11.20;;;;;;;-1.25;96.99;98847.50;4934801;28;20056;-54
2021/01/30 02:03:58;;;;;;;19.95;11.25;;;;;;;-1.59;97.91;98850.22;4933940;28;20154;-57
2021/01/30 02:06:25;;;;;;;20.83;12.00;;;;;;;-1.32;97.72;98855.59;4932172;28;20074;-58
2021/01/30 02:08:52;;;;;;;19.92;11.30;;;;;;;-1.66;98.27;98855.78;4936913;28;20115;-57
2021/01/30 02:11:19;;;;;;;23.40;11.57;;;;;;;-1.65;97.86;98860.84;4935217;28;20054;-57
2021/01/30 02:13:53;;;;;;;19.35;10.27;;;;;;;-1.46;97.29;98862.50;4935664;28;20138;-57
2021/01/30 02:16:23;;;;;;;21.00;10.38;;;;;;;-1.31;96.73;98864.81;4934551;28;20143;-55
2021/01/30 02:19:13;;;;;;;20.48;10.50;;;;;;;-1.86;98.23;98865.75;4936074;28;20052;-53
2021/01/30 02:21:42;;;;;;;18.02;10.25;;;;;;;-1.40;98.46;98872.81;4934232;28;20110;-54
2021/01/30 02:24:52;;;;;;;22.27;11.65;;;;;;;-1.80;98.41;98850.16;4935449;28;20051;-58
2021/01/30 02:27:41;;;;;;;22.85;12.57;;;;;;;-1.75;99.34;98857.88;4935300;28;20047;-55
2021/01/30 02:30:33;;;;;;;23.48;12.68;;;;;;;-1.91;100.00;98856.31;4935282;28;20055;-53
2021/01/30 02:33:32;;;;;;;25.92;13.45;;;;;;;-1.47;98.52;98872.50;4936562;28;20130;-57
2021/01/30 02:36:26;;;;;;;25.38;13.48;;;;;;;-1.47;98.66;98868.34;4936695;28;20055;-54
2021/01/30 02:39:15;;;;;;;27.08;14.13;;;;;;;-1.52;98.22;98859.75;4935876;28;20123;-57
2021/01/30 02:41:54;;;;;;;28.05;15.55;;;;;;;-1.90;100.00;98871.41;4933990;28;20043;-56
2021/01/30 02:44:22;;;;;;;28.40;14.73;;;;;;;-1.47;100.00;98875.00;4934351;28;20499;-57
2021/01/30 02:46:54;;;;;;;25.73;15.13;;;;;;;-1.57;98.45;98878.78;4935297;28;20587;-54
2021/01/30 02:49:29;;;;;;;27.25;15.23;;;;;;;-1.54;98.53;98867.19;4934100;28;20059;-57
2021/01/30 02:52:19;;;;;;;24.93;14.60;;;;;;;-1.49;98.54;98869.03;4936007;28;20056;-53
2021/01/30 02:54:47;;;;;;;24.08;14.38;;;;;;;-1.26;98.28;98870.91;4934931;28;20543;-57
2021/01/30 02:57:15;;;;;;;25.88;13.98;;;;;;;-1.47;97.57;98880.03;4934693;28;20114;-57
2021/01/30 02:59:46;;;;;;;22.83;14.70;;;;;;;-1.41;97.34;98867.75;4934147;28;20055;-57
2021/01/30 03:02:13;;;;;;;22.17;13.68;;;;;;;-1.52;96.91;98882.34;4935094;28;20791;-56
2021/01/30 03:04:40;;;;;;;22.65;13.88;;;;;;;-1.45;97.78;98889.31;4933940;28;20182;-58
2021/01/30 03:07:23;;;;;;;26.15;15.05;;;;;;;-1.49;98.14;98891.63;4934785;28;20043;-58
2021/01/30 03:10:01;;;;;;;23.17;13.32;;;;;;;-1.27;96.21;98901.81;4935388;28;20115;-54
2021/01/30 03:12:35;;;;;;;26.77;14.32;;;;;;;-1.44;96.92;98900.22;4936873;28;20047;-57
2021/01/30 03:15:24;;;;;;;27.50;14.90;;;;;;;-1.72;97.96;98901.50;4936090;28;20047;-53
2021/01/30 03:17:52;;;;;;;24.00;14.63;;;;;;;-1.43;98.59;98909.47;4934296;28;20043;-57
2021/01/30 03:20:19;;;;;;;25.40;13.57;;;;;;;-1.56;97.89;98910.59;4934139;28;20075;-58
2021/01/30 03:22:48;;;;;;;23.88;14.25;;;;;;;-1.80;98.32;98927.91;4934502;28;20044;-57
2021/01/30 03:25:23;;;;;;;25.13;14.00;;;;;;;-1.44;97.76;98920.31;4934296;28;20058;-56
2021/01/30 03:27:50;;;;;;;16.92;10.50;;;;;;;-1.33;96.95;98921.66;4934758;28;20039;-58
2021/01/30 03:30:17;;;;;;;20.30;13.00;;;;;;;-1.35;96.99;98930.75;4934112;28;20106;-56
2021/01/30 03:32:44;;;;;;;22.33;13.75;;;;;;;-1.67;98.13;98936.81;4933835;28;20083;-57
2021/01/30 03:35:12;;;;;;;21.25;13.13;;;;;;;-1.31;97.09;98947.66;4934662;28;20126;-56
2021/01/30 03:37:39;;;;;;;19.00;12.48;;;;;;;-1.40;97.01;98948.13;4933075;28;20115;-56
2021/01/30 03:40:08;;;;;;;23.80;13.82;;;;;;;-1.45;97.46;98952.06;4934340;28;20055;-57
2021/01/30 03:42:35;;;;;;;22.50;13.77;;;;;;;-1.42;97.40;98952.22;4932348;28;20055;-57
2021/01/30 03:45:06;;;;;;;21.13;12.60;;;;;;;-1.26;96.36;98956.25;4934975;28;20099;-55
2021/01/30 03:47:32;;;;;;;22.20;11.35;;;;;;;-1.45;96.92;98954.59;4932881;28;20618;-58
2021/01/30 03:49:59;;;;;;;21.48;12.35;;;;;;;-1.31;96.89;98967.75;4935877;28;20062;-52
2021/01/30 03:52:25;;;;;;;23.33;12.85;;;;;;;-1.61;97.08;98974.78;4932524;28;20369;-57
2021/01/30 03:54:52;;;;;;;23.60;12.88;;;;;;;-1.51;97.68;98984.44;4935187;28;20055;-58
2021/01/30 03:57:18;;;;;;;26.02;14.40;;;;;;;-1.70;98.23;98992.75;4932789;28;20854;-57
2021/01/30 03:59:45;;;;;;;24.00;14.05;;;;;;;-1.70;98.51;99009.47;4933700;28;20099;-55
2021/01/30 04:02:11;;;;;;;24.33;13.13;;;;;;;-1.66;99.10;99001.31;4934228;28;20047;-58
2021/01/30 04:04:38;;;;;;;22.17;13.15;;;;;;;-1.49;98.15;99002.91;4932572;28;20055;-57
2021/01/30 04:07:04;;;;;;;22.83;13.40;;;;;;;-1.47;98.41;99011.38;4934636;28;20051;-58
2021/01/30 04:09:31;;;;;;;24.77;13.68;;;;;;;-1.41;98.57;99019.19;4932487;28;20047;-55
2021/01/30 04:11:57;;;;;;;21.73;13.13;;;;;;;-1.72;98.86;99026.94;4935068;28;20125;-55
2021/01/30 04:14:23;;;;;;;23.60;13.95;;;;;;;-1.77;99.42;99023.34;4932783;28;20056;-57
2021/01/30 04:16:50;;;;;;;22.55;13.07;;;;;;;-1.68;99.94;99025.44;4934115;28;20587;-56
2021/01/30 04:19:16;;;;;;;18.75;11.95;;;;;;;-1.61;98.79;99025.81;4933063;28;20058;-57
2021/01/30 04:21:43;;;;;;;22.73;13.18;;;;;;;-1.47;99.32;99036.50;4933009;28;20504;-58
2021/01/30 04:24:10;;;;;;;22.55;13.27;;;;;;;-1.59;99.57;99038.41;4934289;28;20071;-54
2021/01/30 04:26:37;;;;;;;25.60;13.65;;;;;;;-1.52;99.41;99052.13;4933335;28;20126;-53
2021/01/30 04:29:03;;;;;;;22.55;12.60;;;;;;;-1.49;98.43;99055.63;4934315;28;20059;-58
2021/01/30 04:31:30;;;;;;;18.25;11.18;;;;;;;-1.16;97.89;99051.28;4932542;28;20095;-55
2021/01/30 04:33:57;;;;;;;18.98;11.82;;;;;;;-1.49;97.99;99053.09;4935466;28;20062;-53
2021/01/30 04:36:24;;;;;;;20.85;12.18;;;;;;;-1.51;98.46;99054.69;4947290;28;20055;-57
2021/01/30 04:38:50;;;;;;;20.17;11.52;;;;;;;-1.58;99.10;99048.53;4934555;28;20043;-55
2021/01/30 04:41:43;;;;;;;18.98;10.85;;;;;;;-1.72;99.36;99046.16;4933311;28;20658;-55
2021/01/30 04:44:28;;;;;;;20.42;12.23;;;;;;;-1.48;99.02;99049.81;4934074;28;20113;-54
2021/01/30 04:47:36;;;;;;;15.38;10.30;;;;;;;-1.24;98.32;99039.19;4934705;28;20263;-54
2021/01/30 04:50:15;;;;;;;18.48;10.68;;;;;;;-1.45;97.62;99049.97;4934786;28;20039;-55
2021/01/30 04:52:58;;;;;;;15.82;10.57;;;;;;;-1.77;99.13;99055.09;4933107;28;20056;-58
2021/01/30 04:55:58;;;;;;;17.35;10.82;;;;;;;-1.54;99.63;99059.56;4936113;28;20047;-57
2021/01/30 04:58:34;;;;;;;19.85;11.15;;;;;;;-1.43;99.35;99063.47;4935718;28;20047;-53
2021/01/30 05:01:14;;;;;;;18.23;10.65;;;;;;;-1.39;98.80;99067.81;4935001;28;20101;-57
2021/01/30 05:03:50;;;;;;;19.90;10.60;;;;;;;-1.69;99.26;99069.75;4934405;28;20051;-57
2021/01/30 05:06:41;;;;;;;17.42;10.45;;;;;;;-1.41;98.92;99081.94;4933083;28;20054;-58
2021/01/30 05:09:38;;;;;;;20.98;10.90;;;;;;;-1.69;99.61;99087.31;4932977;28;20047;-58
2021/01/30 05:12:14;;;;;;;18.08;11.52;;;;;;;-1.72;99.36;99082.13;4934428;28;20043;-54
2021/01/30 05:14:51;;;;;;;22.25;11.75;;;;;;;-1.70;100.00;99082.22;4932927;28;20051;-55
2021/01/30 05:17:22;;;;;;;19.15;11.60;;;;;;;-1.58;100.00;99096.19;4932847;28;20075;-57
2021/01/30 05:19:56;;;;;;;21.65;12.23;;;;;;;-1.55;100.00;99098.00;4934087;28;20055;-55
2021/01/30 05:22:32;;;;;;;18.75;11.90;;;;;;;-1.67;99.11;99102.44;4932885;28;20055;-52
2021/01/30 05:24:59;;;;;;;16.40;10.77;;;;;;;-1.38;98.91;99102.19;4934465;28;20055;-55
2021/01/30 05:27:42;;;;;;;19.85;10.63;;;;;;;-1.46;98.79;99105.97;4932059;28;20048;-55
2021/01/30 05:30:14;;;;;;;17.90;10.88;;;;;;;-1.55;99.42;99108.03;4933547;28;20129;-55
2021/01/30 05:32:59;;;;;;;21.75;11.73;;;;;;;-1.91;99.36;99105.47;4932851;28;20047;-56
2021/01/30 05:35:53;;;;;;;20.40;12.30;;;;;;;-2.04;100.00;99103.13;4935533;28;20047;-58
2021/01/30 05:39:01;;;;;;;20.65;11.93;;;;;;;-1.84;100.00;99114.16;4933210;28;20123;-55
2021/01/30 05:42:03;;;;;;;21.88;12.65;;;;;;;-2.11;100.00;99119.53;4937128;28;20492;-54
2021/01/30 05:44:42;;;;;;;21.02;12.27;;;;;;;-1.96;100.00;99131.13;4937781;28;20047;-53
2021/01/30 05:47:19;;;;;;;21.73;13.00;;;;;;;-1.89;100.00;99133.16;4936889;28;20138;-54
2021/01/30 05:50:14;;;;;;;24.15;14.02;;;;;;;-1.74;100.00;99141.44;4936823;28;20051;-57
2021/01/30 05:52:41;;;;;;;28.40;14.23;;;;;;;-1.80;100.00;99148.66;4936041;28;20043;-55
2021/01/30 05:55:28;;;;;;;23.50;14.27;;;;;;;-1.75;100.00;99153.91;4937513;28;20503;-54
2021/01/30 05:58:02;;;;;;;26.45;13.52;;;;;;;-1.42;100.00;99160.56;4937150;28;20051;-57
2021/01/30 06:00:29;;;;;;;22.55;12.75;;;;;;;-1.65;100.00;99163.59;4939037;28;20134;-57
2021/01/30 06:03:08;;;;;;;23.00;13.07;;;;;;;-1.27;99.29;99159.56;4937404;28;20086;-56
2021/01/30 06:05:41;;;;;;;26.00;14.50;;;;;;;-1.87;100.00;99169.19;4935369;28;20047;-58
2021/01/30 06:08:19;;;;;;;26.55;14.18;;;;;;;-1.62;100.00;99174.66;4936295;28;20050;-54
2021/01/30 06:10:50;;;;;;;25.08;14.77;;;;;;;-1.36;99.39;99177.56;4936395;28;20468;-55
2021/01/30 06:13:18;;;;;;;25.92;13.93;;;;;;;-1.63;100.00;99187.97;4936190;28;20055;-54
2021/01/30 06:15:48;;;;;;;28.70;14.45;;;;;;;-1.48;100.00;99194.53;4935963;28;20071;-57
2021/01/30 06:18:31;;;;;;;27.02;14.63;;;;;;;-1.62;100.00;99199.75;4935721;28;20054;-57
2021/01/30 06:21:18;;;;;;;27.67;14.68;;;;;;;-1.48;100.00;99210.44;4937783;28;20546;-58
2021/01/30 06:24:08;;;;;;;27.15;14.73;;;;;;;-1.62;100.00;99204.75;4935971;28;20106;-56
2021/01/30 06:26:40;;;;;;;27.80;15.27;;;;;;;-1.71;100.00;99213.44;4934839;28;20072;-55
2021/01/30 06:29:35;;;;;;;29.40;15.15;;;;;;;-1.76;100.00;99224.91;4935313;28;20117;-58
2021/01/30 06:32:21;;;;;;;23.63;13.60;;;;;;;-1.57;100.00;99227.59;4937207;28;20054;-52
2021/01/30 06:34:50;;;;;;;;;;;;;;;-1.62;100.00;99234.88;4936572;28;20051;-53
2021/01/30 06:37:38;;;;;;;28.40;14.88;;;;;;;-1.72;100.00;99249.38;4935352;28;19927;-52
2021/01/30 06:40:14;;;;;;;27.08;14.25;;;;;;;-1.65;100.00;99252.28;4951156;28;20078;-55
2021/01/30 06:42:44;;;;;;;27.25;14.88;;;;;;;-1.71;100.00;99259.50;4935137;28;20047;-54
2021/01/30 06:45:54;;;;;;;27.98;14.65;;;;;;;-1.66;100.00;99264.75;4937687;28;20626;-53
2021/01/30 06:48:28;;;;;;;29.45;15.27;;;;;;;-1.84;100.00;99280.59;4932532;28;20511;-51
2021/01/30 06:50:55;;;;;;;30.17;16.70;;;;;;;-1.75;100.00;99282.72;4936982;28;20104;-50
2021/01/30 06:53:27;;;;;;;28.63;15.55;;;;;;;-1.80;100.00;99287.50;4933013;28;20134;-51
2021/01/30 06:55:54;;;;;;;30.65;16.98;;;;;;;-1.55;100.00;99292.09;4935424;28;20063;-51
2021/01/30 06:58:28;;;;;;;26.85;15.35;;;;;;;-1.88;100.00;99292.88;4934657;28;20051;-54
2021/01/30 07:01:25;;;;;;;31.50;15.57;;;;;;;-1.85;100.00;99301.44;4944752;28;20051;-53
2021/01/30 07:03:58;;;;;;;28.40;15.43;;;;;;;-1.64;100.00;99296.66;4932124;28;20044;-54
2021/01/30 07:06:28;;;;;;;30.35;14.90;;;;;;;-1.75;100.00;99314.47;4936567;28;20184;-52
2021/01/30 07:09:18;;;;;;;32.47;17.15;;;;;;;-1.93;100.00;99310.22;4936357;28;20051;-53
2021/01/30 07:11:48;;;;;;;29.48;15.18;;;;;;;-1.72;100.00;99323.00;4933657;28;20118;-53
2021/01/30 07:14:35;;;;;;;36.03;17.95;;;;;;;-1.72;100.00;99332.16;4938415;28;20077;-50
2021/01/30 07:17:16;;;;;;;29.95;16.38;;;;;;;-1.63;100.00;99336.00;4937126;28;20062;-52
2021/01/30 07:20:25;;;;;;;30.13;16.27;;;;;;;-1.63;100.00;99345.19;4935400;28;20040;-50
2021/01/30 07:22:54;;;;;;;33.30;15.90;;;;;;;-1.28;100.00;99349.53;4934745;28;20134;-54
2021/01/30 07:25:50;;;;;;;27.05;15.88;;;;;;;-1.35;99.49;99350.84;4934168;28;20047;-51
2021/01/30 07:28:28;;;;;;;27.38;15.18;;;;;;;-1.70;99.64;99363.25;4935115;28;20102;-52
2021/01/30 07:31:09;;;;;;;32.00;16.67;;;;;;;-1.66;100.00;99368.50;4951956;28;20087;-53
2021/01/30 07:33:47;;;;;;;32.58;16.30;;;;;;;-1.74;99.61;99372.25;4934589;28;20040;-52
2021/01/30 07:36:36;;;;;;;30.52;15.85;;;;;;;-1.71;99.66;99379.06;4943610;28;20073;-50
2021/01/30 07:39:31;;;;;;;32.75;16.38;;;;;;;-1.65;100.00;99379.41;4935010;28;20043;-51
2021/01/30 07:42:16;;;;;;;33.50;16.30;;;;;;;-1.08;98.38;99384.03;4936796;28;20410;-54
2021/01/30 07:44:48;;;;;;;32.40;17.58;;;;;;;-1.28;98.85;99392.22;4953103;28;20054;-53
2021/01/30 07:47:31;;;;;;;29.02;14.80;;;;;;;-1.27;98.81;99396.44;4943926;28;20101;-53
2021/01/30 07:50:03;;;;;;;32.75;17.17;;;;;;;-0.97;98.41;99393.75;4936330;28;20059;-52
2021/01/30 07:52:51;;;;;;;29.02;15.52;;;;;;;-1.18;98.83;99386.88;4936522;28;20611;-56
2021/01/30 07:55:17;;;;;;;28.70;16.02;;;;;;;-0.92;98.56;99393.22;4941027;28;20105;-53
2021/01/30 07:58:02;;;;;;;34.55;16.73;;;;;;;-0.99;98.59;99392.81;4953772;28;20055;-52
2021/01/30 08:00:50;;;;;;;31.25;15.85;;;;;;;-0.92;99.03;99397.38;4954334;28;20050;-55
2021/01/30 08:03:41;;;;;;;35.17;17.52;;;;;;;-0.60;98.43;99393.91;4949261;28;20044;-53
2021/01/30 08:06:21;;;;;;;31.05;16.10;;;;;;;-0.20;96.31;99394.19;4947931;28;20523;-53
2021/01/30 08:09:02;;;;;;;33.38;16.60;;;;;;;-0.44;96.08;99403.94;4952079;28;20666;-52
2021/01/30 08:11:33;;;;;;;27.90;15.05;;;;;;;-0.16;96.65;99407.78;4941042;28;20463;-53
2021/01/30 08:14:30;;;;;;;28.13;14.60;;;;;;;-0.09;94.67;99403.13;4934738;28;20055;-56
2021/01/30 08:17:19;;;;;;;26.17;14.30;;;;;;;-0.20;95.39;99411.78;4933733;28;20051;-55
2021/01/30 08:19:59;;;;;;;24.75;13.23;;;;;;;-0.30;94.33;99407.13;4934330;28;20496;-52
2021/01/30 08:22:41;;;;;;;25.77;13.73;;;;;;;-0.44;94.89;99408.97;4935588;28;20095;-52
2021/01/30 08:25:11;;;;;;;26.48;15.02;;;;;;;-0.36;95.80;99411.88;4933387;28;20043;-54
2021/01/30 08:27:41;;;;;;;26.85;14.40;;;;;;;-0.04;94.57;99414.25;4935625;28;20051;-48
2021/01/30 08:30:16;;;;;;;27.48;13.52;;;;;;;0.03;93.83;99420.41;4933240;28;20153;-48
2021/01/30 08:33:12;;;;;;;23.60;13.23;;;;;;;-0.24;94.46;99417.47;4932496;28;20924;-53
2021/01/30 08:35:42;;;;;;;22.13;12.50;;;;;;;-0.29;94.47;99422.28;4928165;28;20273;-48
2021/01/30 08:38:32;;;;;;;23.20;12.73;;;;;;;-0.38;94.98;99426.00;4934249;28;20078;-54
2021/01/30 08:41:05;;;;;;;25.15;12.55;;;;;;;-0.24;94.40;99429.19;4936052;28;20062;-50
2021/01/30 08:43:51;;;;;;;21.05;12.00;;;;;;;-0.18;94.74;99437.03;4936697;28;20438;-54
2021/01/30 08:46:37;;;;;;;22.10;12.13;;;;;;;0.69;91.34;99436.00;4934163;28;20502;-53
2021/01/30 08:49:16;;;;;;;22.10;11.07;;;;;;;0.24;93.04;99438.19;4935619;28;20049;-52
2021/01/30 08:51:45;;;;;;;22.40;11.95;;;;;;;0.01;93.56;99443.81;4933803;28;20048;-52
2021/01/30 08:54:30;;;;;;;22.98;11.57;;;;;;;0.14;93.06;99446.06;4934629;28;20059;-51
2021/01/30 08:56:58;;;;;;;19.10;10.90;;;;;;;-0.06;93.78;99446.00;4935541;28;20145;-55
2021/01/30 08:59:41;;;;;;;23.15;11.45;;;;;;;0.38;94.15;99447.25;4936712;28;20051;-49
2021/01/30 09:02:27;;;;;;;19.42;10.15;;;;;;;0.43;90.87;99445.78;4933647;28;20094;-56
2021/01/30 09:05:02;;;;;;;15.05;8.10;;;;;;;0.14;91.89;99456.16;4935055;28;20440;-53
2021/01/30 09:07:52;;;;;;;19.30;9.77;;;;;;;0.15;94.01;99450.34;4939259;28;20059;-53
2021/01/30 09:10:21;;;;;;;16.80;9.52;;;;;;;0.69;91.54;99459.56;4945115;28;20491;-50
2021/01/30 09:13:07;;;;;;;15.30;8.93;;;;;;;0.82;88.84;99466.00;4945376;28;20106;-53
2021/01/30 09:15:42;;;;;;;16.20;9.27;;;;;;;0.53;92.38;99468.88;4931864;28;20040;-54
2021/01/30 09:18:12;;;;;;;15.55;8.88;;;;;;;1.12;91.61;99470.69;4938844;28;20104;-54
2021/01/30 09:20:52;;;;;;;12.63;8.23;;;;;;;0.84;90.38;99469.47;4939028;28;20106;-52
2021/01/30 09:23:41;;;;;;;14.90;8.77;;;;;;;1.08;88.42;99474.72;4947786;28;20063;-53
2021/01/30 09:26:32;;;;;;;14.57;8.82;;;;;;;1.05;89.06;99477.09;4937514;28;20051;-54
2021/01/30 09:29:00;;;;;;;12.55;7.95;;;;;;;1.11;89.75;99484.94;4938511;28;20101;-48
2021/01/30 09:31:28;;;;;;;14.15;8.38;;;;;;;1.38;90.05;99489.44;4939702;28;20642;-51
2021/01/30 09:34:16;;;;;;;10.85;7.28;;;;;;;1.74;86.00;99483.41;4938551;28;20051;-55
2021/01/30 09:36:49;;;;;;;10.75;6.88;;;;;;;2.33;82.03;99498.38;4936373;28;20483;-51
2021/01/30 09:39:33;;;;;;;9.38;6.50;;;;;;;1.92;84.69;99495.06;4937281;28;20499;-54
2021/01/30 09:42:06;;;;;;;11.65;6.38;;;;;;;2.07;82.50;99495.66;4938316;28;20055;-54
2021/01/30 09:44:32;;;;;;;9.43;5.90;;;;;;;2.19;82.31;99498.69;4939363;28;20566;-54
2021/01/30 09:47:06;;;;;;;8.52;5.80;;;;;;;2.12;82.67;99496.69;4937740;28;20141;-54
2021/01/30 09:49:46;;;;;;;9.38;5.90;;;;;;;1.47;84.69;99504.94;4954665;28;20074;-50
2021/01/30 09:52:19;;;;;;;10.77;6.45;;;;;;;1.40;85.63;99508.03;4952436;28;20053;-51
2021/01/30 09:54:51;;;;;;;8.57;5.88;;;;;;;1.70;84.66;99510.97;4936473;28;20056;-54
2021/01/30 09:57:24;;;;;;;9.90;6.93;;;;;;;1.47;83.85;99515.03;4935636;28;20531;-51
2021/01/30 10:00:00;;;;;;;11.00;7.45;;;;;;;1.57;85.63;99514.63;4938748;28;20077;-53
2021/01/30 10:02:29;;;;;;;16.08;8.48;;;;;;;1.33;85.62;99516.97;4938484;28;20492;-49
2021/01/30 10:05:28;;;;;;;13.00;7.93;;;;;;;2.35;81.99;99519.47;4937868;28;20055;-50
2021/01/30 10:07:55;;;;;;;13.95;7.80;;;;;;;2.08;83.39;99519.25;4921100;28;20055;-52
2021/01/30 10:10:31;;;;;;;13.38;8.20;;;;;;;1.91;83.93;99514.38;4939302;28;20047;-54
2021/01/30 10:13:00;;;;;;;15.02;7.50;;;;;;;1.79;83.69;99512.19;4946391;28;20065;-52
2021/01/30 10:15:34;;;;;;;12.40;7.30;;;;;;;1.77;83.83;99518.00;4935026;28;20103;-54
2021/01/30 10:18:22;;;;;;;13.77;7.80;;;;;;;1.53;86.83;99517.84;4945545;28;20110;-53
2021/01/30 10:20:52;;;;;;;11.55;8.13;;;;;;;1.77;86.48;99507.91;4938624;28;20115;-53
2021/01/30 10:23:27;;;;;;;10.93;7.93;;;;;;;1.60;86.32;99511.38;4935678;28;20431;-53
2021/01/30 10:26:11;;;;;;;12.60;7.78;;;;;;;1.48;87.03;99509.22;4937136;28;20515;-53
2021/01/30 10:28:43;;;;;;;9.65;6.78;;;;;;;2.17;84.65;99507.88;4934867;28;20043;-51
2021/01/30 10:31:10;;;;;;;11.02;7.28;;;;;;;1.62;86.27;99515.72;4936786;28;20047;-51
2021/01/30 10:33:47;;;;;;;10.88;7.22;;;;;;;1.56;88.19;99515.44;4934202;28;20500;-57
2021/01/30 10:36:15;;;;;;;11.32;7.05;;;;;;;1.39;86.69;99516.38;4934805;28;20046;-52
2021/01/30 10:38:42;;;;;;;10.65;7.32;;;;;;;2.39;82.57;99516.28;4935595;28;20103;-52
2021/01/30 10:41:16;;;;;;;13.63;7.90;;;;;;;1.76;85.36;99514.63;4936704;28;20063;-51
2021/01/30 10:43:45;;;;;;;15.15;8.95;;;;;;;2.01;85.04;99521.53;4936916;28;20480;-53
2021/01/30 10:46:16;;;;;;;15.25;8.90;;;;;;;1.30;87.90;99526.09;4936116;28;20051;-52
2021/01/30 10:48:43;;;;;;;14.50;9.07;;;;;;;1.59;87.59;99525.66;4935548;28;20065;-51
2021/01/30 10:51:16;;;;;;;13.40;8.52;;;;;;;1.78;85.99;99520.59;4936046;28;20105;-51
2021/01/30 10:53:43;;;;;;;14.07;9.00;;;;;;;1.76;85.81;99526.38;4935345;28;20051;-50
2021/01/30 10:56:25;;;;;;;14.98;9.50;;;;;;;1.40;88.77;99529.06;4935906;28;20463;-51
2021/01/30 10:58:53;;;;;;;12.63;8.75;;;;;;;1.82;87.68;99518.19;4936755;28;20157;-51
2021/01/30 11:01:20;;;;;;;12.07;8.35;;;;;;;2.48;84.27;99521.69;4935109;28;20055;-57
2021/01/30 11:03:53;;;;;;;14.95;9.90;;;;;;;2.10;84.41;99518.50;4935644;28;20091;-50
2021/01/30 11:06:19;;;;;;;15.02;9.75;;;;;;;2.94;81.38;99519.25;4934534;28;20468;-55
2021/01/30 11:08:46;;;;;;;15.07;9.07;;;;;;;2.33;83.17;99521.09;4935099;28;20090;-55
2021/01/30 11:11:23;;;;;;;14.23;9.27;;;;;;;2.47;84.95;99522.50;4940567;28;20055;-54
2021/01/30 11:13:50;;;;;;;14.68;9.15;;;;;;;2.15;85.50;99519.56;4935790;28;20578;-52
2021/01/30 11:16:34;;;;;;;13.25;9.20;;;;;;;2.73;83.52;99521.84;4934316;28;20513;-50
2021/01/30 11:19:24;;;;;;;12.93;7.95;;;;;;;2.51;81.77;99529.41;4936610;28;20070;-52
2021/01/30 11:22:10;;;;;;;11.45;7.55;;;;;;;2.10;84.20;99527.75;4935278;28;20281;-55
2021/01/30 11:24:48;;;;;;;11.40;7.75;;;;;;;2.01;84.49;99529.09;4926622;28;20047;-56
2021/01/30 11:27:33;;;;;;;10.73;7.35;;;;;;;2.33;83.44;99526.16;4934500;28;20094;-53
2021/01/30 11:30:25;;;;;;;9.93;7.43;;;;;;;2.01;84.73;99523.19;4937601;28;20110;-54
2021/01/30 11:33:17;;;;;;;10.65;7.22;;;;;;;2.17;82.95;99520.50;4935710;28;20047;-48
2021/01/30 11:35:50;;;;;;;8.57;6.50;;;;;;;2.06;85.03;99516.66;4938679;28;20060;-52
2021/01/30 11:38:19;;;;;;;8.07;6.18;;;;;;;1.70;86.02;99524.44;4933952;28;20079;-51
2021/01/30 11:40:50;;;;;;;8.75;5.95;;;;;;;2.05;85.21;99527.56;4934498;28;20051;-56
2021/01/30 11:43:17;;;;;;;7.45;5.47;;;;;;;2.18;84.43;99527.28;4934558;28;20105;-52
2021/01/30 11:45:44;;;;;;;6.85;5.72;;;;;;;2.48;83.79;99532.66;4934168;28;20055;-53
2021/01/30 11:48:12;;;;;;;8.77;6.20;;;;;;;2.33;83.21;99523.63;4934604;28;20102;-53
2021/01/30 11:50:40;;;;;;;11.93;8.00;;;;;;;2.71;82.53;99525.97;4934000;28;20066;-53
2021/01/30 11:53:13;;;;;;;15.27;8.57;;;;;;;2.53;82.57;99535.34;4935177;28;20129;-51
2021/01/30 11:55:40;;;;;;;15.55;9.40;;;;;;;2.37;84.16;99525.47;4933225;28;20516;-52